Time;durP1;ratioP1;P1;durP2;ratioP2;P2;SDS_P1;SDS_P2;PMS_P1;PMS_P2;Temp;Humidity;BMP_temperature;BMP_pressure;BME280_temperature;BME280_humidity;BME280_pressure;Samples;Min_cycle;Max_cycle;Signal;HPM_P1;HPM_P2
2021/06/10 00:02:26;;;;;;;17.30;15.15;;;15.50;99.90;;;;;;5043154;28;20506;-76
2021/06/10 00:04:52;;;;;;;18.88;14.73;;;15.70;99.90;;;;;;5033421;28;20036;-76
2021/06/10 00:07:19;;;;;;;17.08;13.75;;;15.70;99.90;;;;;;5043733;28;20025;-76
2021/06/10 00:09:46;;;;;;;15.85;14.13;;;15.60;99.90;;;;;;5040884;28;20485;-76
2021/06/10 00:12:14;;;;;;;17.13;13.52;;;15.60;99.90;;;;;;5026133;28;20494;-76
2021/06/10 00:14:40;;;;;;;20.63;13.68;;;15.50;99.90;;;;;;5042925;28;20036;-76
2021/06/10 00:17:05;;;;;;;15.90;13.68;;;15.50;99.90;;;;;;5043817;28;20467;-76
2021/06/10 00:19:31;;;;;;;17.67;13.93;;;15.60;99.90;;;;;;5028710;28;20025;-76
2021/06/10 00:21:57;;;;;;;18.98;15.02;;;15.60;99.90;;;;;;5043702;28;20024;-76
2021/06/10 00:24:23;;;;;;;17.08;14.90;;;15.70;99.90;;;;;;5025595;28;20022;-76
2021/06/10 00:26:48;;;;;;;16.70;14.95;;;15.70;99.90;;;;;;5047087;28;20044;-76
2021/06/10 00:29:14;;;;;;;18.10;15.07;;;15.70;99.90;;;;;;5022031;28;20025;-76
2021/06/10 00:31:40;;;;;;;21.08;14.70;;;15.80;99.90;;;;;;5030494;28;20069;-76
2021/06/10 00:34:05;;;;;;;22.10;15.75;;;15.80;99.90;;;;;;5050962;28;20107;-76
2021/06/10 00:36:31;;;;;;;19.15;15.50;;;15.80;99.90;;;;;;5046149;28;20021;-76
2021/06/10 00:38:56;;;;;;;18.63;14.80;;;15.70;99.90;;;;;;5044311;28;20021;-75
2021/06/10 00:41:22;;;;;;;24.40;15.70;;;15.70;99.90;;;;;;5042979;28;20021;-76
2021/06/10 00:43:48;;;;;;;18.15;15.68;;;15.80;99.90;;;;;;5044022;28;20100;-76
2021/06/10 00:46:15;;;;;;;18.10;16.13;;;15.50;99.90;;;;;;5025969;28;20386;-76
2021/06/10 00:48:41;;;;;;;16.38;14.20;;;15.20;99.90;;;;;;5025309;28;20116;-75
2021/06/10 00:51:11;;;;;;;15.25;13.73;;;15.00;99.90;;;;;;5064398;28;20025;-74
2021/06/10 00:53:40;;;;;;;15.77;13.85;;;15.10;99.90;;;;;;5023566;28;20033;-75
2021/06/10 00:56:06;;;;;;;17.40;15.10;;;15.30;99.90;;;;;;5024038;28;20028;-74
2021/06/10 00:58:32;;;;;;;18.63;14.90;;;15.30;99.90;;;;;;5014153;28;20053;-74
2021/06/10 01:00:58;;;;;;;20.25;15.70;;;15.30;99.90;;;;;;5025605;28;20025;-74
2021/06/10 01:03:24;;;;;;;20.42;15.40;;;15.30;99.90;;;;;;5031546;28;20033;-75
2021/06/10 01:05:53;;;;;;;19.38;14.50;;;15.30;99.90;;;;;;5023847;28;20099;-75
2021/06/10 01:08:52;;;;;;;18.70;14.48;;;15.30;99.90;;;;;;5014498;28;20085;-77
2021/06/10 01:11:41;;;;;;;18.48;15.18;;;15.20;99.90;;;;;;5015652;28;20411;-76
2021/06/10 01:14:29;;;;;;;20.13;16.77;;;15.20;99.90;;;;;;5032962;28;20037;-76
2021/06/10 01:16:57;;;;;;;18.33;15.77;;;15.10;99.90;;;;;;5040630;28;20034;-76
2021/06/10 01:19:34;;;;;;;14.23;12.90;;;14.90;99.90;;;;;;5049169;28;20017;-75
2021/06/10 01:22:02;;;;;;;18.08;15.40;;;14.50;99.90;;;;;;5039565;28;20116;-76
2021/06/10 01:24:31;;;;;;;41.78;18.08;;;14.60;99.90;;;;;;5026279;28;20036;-76
2021/06/10 01:27:18;;;;;;;19.40;16.70;;;14.60;99.90;;;;;;5037929;28;20026;-76
2021/06/10 01:29:45;;;;;;;22.02;17.23;;;14.40;99.90;;;;;;5040930;28;20104;-76
2021/06/10 01:32:11;;;;;;;17.38;15.32;;;14.70;99.90;;;;;;5044736;28;20055;-75
2021/06/10 01:34:37;;;;;;;18.27;14.52;;;14.80;99.90;;;;;;5024067;28;20111;-75
2021/06/10 01:37:04;;;;;;;15.55;13.75;;;14.70;99.90;;;;;;5020243;28;20032;-76
2021/06/10 01:39:32;;;;;;;18.02;16.13;;;14.70;99.90;;;;;;5022368;28;20029;-76
2021/06/10 01:41:59;;;;;;;18.88;14.48;;;14.60;99.90;;;;;;5026813;28;20037;-75
2021/06/10 01:44:26;;;;;;;17.63;15.63;;;14.60;99.90;;;;;;5024513;28;20061;-74
2021/06/10 01:46:52;;;;;;;19.42;17.35;;;14.70;99.90;;;;;;5019851;28;20048;-73
2021/06/10 01:49:19;;;;;;;17.42;15.45;;;14.70;99.90;;;;;;5024854;28;20029;-76
2021/06/10 01:51:45;;;;;;;20.90;16.08;;;14.60;99.90;;;;;;5048119;28;20029;-75
2021/06/10 01:54:13;;;;;;;25.83;16.88;;;14.60;99.90;;;;;;5045978;28;20021;-76
2021/06/10 01:56:41;;;;;;;14.23;12.82;;;14.40;99.90;;;;;;5048409;28;20025;-75
2021/06/10 01:59:07;;;;;;;18.20;15.77;;;14.50;99.90;;;;;;5046238;28;20112;-76
2021/06/10 02:01:34;;;;;;;17.00;15.10;;;14.50;99.90;;;;;;5041009;28;20390;-75
2021/06/10 02:04:02;;;;;;;18.85;15.75;;;14.50;99.90;;;;;;5054531;28;20028;-74
2021/06/10 02:06:29;;;;;;;17.15;14.57;;;14.50;99.90;;;;;;5040910;28;20028;-74
2021/06/10 02:08:55;;;;;;;16.10;13.75;;;14.40;99.90;;;;;;5042350;28;20052;-74
2021/06/10 02:11:21;;;;;;;13.68;12.20;;;14.40;99.90;;;;;;5034219;28;20471;-72
2021/06/10 02:13:48;;;;;;;14.05;12.55;;;14.20;99.90;;;;;;5028634;28;20033;-74
2021/06/10 02:16:15;;;;;;;16.85;13.77;;;14.30;99.90;;;;;;5023214;28;20021;-73
2021/06/10 02:18:43;;;;;;;18.35;16.13;;;14.40;99.90;;;;;;5041685;28;20029;-75
2021/06/10 02:21:11;;;;;;;17.80;16.00;;;14.50;99.90;;;;;;5047462;28;20029;-75
2021/06/10 02:23:38;;;;;;;21.33;17.67;;;14.50;99.90;;;;;;5029540;28;20021;-72
2021/06/10 02:26:05;;;;;;;20.90;17.27;;;14.20;99.90;;;;;;5027728;28;20028;-75
2021/06/10 02:28:31;;;;;;;17.38;15.68;;;14.20;99.90;;;;;;5040639;28;20104;-75
2021/06/10 02:30:57;;;;;;;15.77;14.25;;;14.30;99.90;;;;;;5040824;28;20108;-76
2021/06/10 02:33:23;;;;;;;13.68;12.30;;;14.30;99.90;;;;;;5022593;28;20502;-76
2021/06/10 02:35:49;;;;;;;14.90;13.40;;;14.30;99.90;;;;;;5040469;28;20116;-76
2021/06/10 02:38:17;;;;;;;14.50;13.10;;;14.30;99.90;;;;;;5040933;28;20028;-75
2021/06/10 02:40:45;;;;;;;14.50;12.70;;;14.30;99.90;;;;;;5009838;28;20021;-75
2021/06/10 02:43:13;;;;;;;16.75;14.95;;;14.50;99.90;;;;;;5040377;28;20033;-75
2021/06/10 02:45:40;;;;;;;19.35;15.18;;;14.60;99.90;;;;;;5028562;28;20029;-76
2021/06/10 02:48:08;;;;;;;14.48;12.98;;;14.40;99.90;;;;;;5046956;28;20487;-75
2021/06/10 02:50:38;;;;;;;14.13;12.55;;;14.50;99.90;;;;;;5033571;28;20030;-75
2021/06/10 02:53:05;;;;;;;17.17;14.23;;;14.60;99.90;;;;;;5046940;28;20017;-75
2021/06/10 02:55:36;;;;;;;89.88;21.90;;;14.70;99.90;;;;;;5004775;28;20029;-76
2021/06/10 02:58:03;;;;;;;59.50;19.92;;;14.70;99.90;;;;;;5015345;28;20134;-76
2021/06/10 03:00:32;;;;;;;156.95;30.88;;;14.80;99.90;;;;;;5024508;28;20021;-76
2021/06/10 03:03:00;;;;;;;94.28;26.10;;;14.80;99.90;;;;;;5046897;28;20524;-76
2021/06/10 03:05:27;;;;;;;148.48;32.03;;;14.70;99.90;;;;;;5043960;28;20021;-75
2021/06/10 03:07:54;;;;;;;163.75;31.05;;;14.60;99.90;;;;;;5039855;28;20475;-76
2021/06/10 03:10:24;;;;;;;184.35;33.55;;;14.50;99.90;;;;;;5041956;28;20026;-76
2021/06/10 03:12:51;;;;;;;180.13;32.25;;;14.40;99.90;;;;;;5033330;28;20551;-76
2021/06/10 03:15:17;;;;;;;188.82;30.42;;;14.50;99.90;;;;;;5027492;28;20478;-76
2021/06/10 03:17:43;;;;;;;115.32;25.50;;;14.70;99.90;;;;;;5039808;28;20025;-76
2021/06/10 03:20:09;;;;;;;107.63;26.50;;;14.70;99.90;;;;;;5023425;28;20033;-76
2021/06/10 03:22:36;;;;;;;58.08;23.35;;;14.70;99.90;;;;;;5028545;28;20025;-76
2021/06/10 03:25:07;;;;;;;139.07;29.20;;;14.70;99.90;;;;;;5044956;28;20028;-76
2021/06/10 03:27:34;;;;;;;51.65;19.27;;;14.50;99.90;;;;;;5021595;28;20021;-76
2021/06/10 03:30:00;;;;;;;42.63;20.30;;;14.40;99.90;;;;;;5040118;28;20071;-76
2021/06/10 03:32:27;;;;;;;29.55;17.58;;;14.30;99.90;;;;;;5052474;28;20025;-75
2021/06/10 03:34:56;;;;;;;22.83;17.50;;;14.30;99.90;;;;;;5039928;28;20467;-76
2021/06/10 03:37:23;;;;;;;17.30;15.32;;;14.40;99.90;;;;;;5046069;28;20060;-75
2021/06/10 03:39:50;;;;;;;18.95;15.27;;;14.40;99.90;;;;;;5045967;28;20057;-75
2021/06/10 03:42:18;;;;;;;16.88;15.27;;;14.60;99.90;;;;;;5026563;28;20064;-75
2021/06/10 03:44:45;;;;;;;19.17;17.27;;;14.70;99.90;;;;;;5039213;28;20072;-75
2021/06/10 03:47:19;;;;;;;22.10;18.33;;;14.60;99.90;;;;;;5045378;28;20025;-75
2021/06/10 03:49:45;;;;;;;337.90;39.28;;;14.50;99.90;;;;;;5034207;28;20017;-75
2021/06/10 03:52:11;;;;;;;324.27;40.00;;;14.10;99.90;;;;;;5044061;28;20079;-76
2021/06/10 03:54:36;;;;;;;381.42;45.38;;;14.10;99.90;;;;;;5027740;28;20043;-75
2021/06/10 03:57:02;;;;;;;373.50;48.97;;;14.00;99.90;;;;;;5044310;28;20399;-75
2021/06/10 03:59:28;;;;;;;424.75;47.30;;;14.00;99.90;;;;;;5045517;28;20028;-75
2021/06/10 04:01:53;;;;;;;331.02;40.70;;;13.90;99.90;;;;;;5022757;28;20506;-74
2021/06/10 04:04:19;;;;;;;344.10;41.33;;;13.80;99.90;;;;;;5038756;28;20477;-74
2021/06/10 04:06:46;;;;;;;393.75;43.92;;;13.70;99.90;;;;;;5044431;28;20541;-75
2021/06/10 04:09:12;;;;;;;194.40;35.60;;;13.60;99.90;;;;;;5045383;28;20025;-74
2021/06/10 04:11:38;;;;;;;152.65;22.98;;;13.80;99.90;;;;;;5032213;28;20502;-74
2021/06/10 04:14:04;;;;;;;201.38;36.28;;;13.90;99.90;;;;;;5027705;28;20029;-74
2021/06/10 04:16:30;;;;;;;239.68;37.60;;;14.00;99.90;;;;;;5022600;28;20310;-71
2021/06/10 04:18:56;;;;;;;482.35;55.10;;;14.00;99.90;;;;;;5038608;28;20108;-71
2021/06/10 04:21:22;;;;;;;283.67;41.83;;;13.80;99.90;;;;;;5043711;28;20080;-76
2021/06/10 04:23:48;;;;;;;232.75;37.70;;;13.80;99.90;;;;;;5048628;28;20017;-76
2021/06/10 04:26:14;;;;;;;119.45;31.20;;;13.80;99.90;;;;;;5045008;28;20095;-74
2021/06/10 04:28:40;;;;;;;168.98;34.97;;;13.90;99.90;;;;;;5031989;28;20275;-75
2021/06/10 04:31:06;;;;;;;148.02;33.40;;;14.10;99.90;;;;;;5031720;28;20021;-75
2021/06/10 04:33:31;;;;;;;101.13;29.10;;;14.10;99.90;;;;;;5045055;28;20025;-74
2021/06/10 04:35:57;;;;;;;21.13;17.88;;;14.10;99.90;;;;;;5040363;28;20104;-75
2021/06/10 04:38:22;;;;;;;20.58;18.48;;;14.30;99.90;;;;;;5038579;28;20036;-74
2021/06/10 04:40:48;;;;;;;83.82;27.95;;;14.50;99.90;;;;;;5043249;28;20057;-75
2021/06/10 04:43:14;;;;;;;73.75;25.52;;;14.50;99.90;;;;;;5045261;28;20100;-75
2021/06/10 04:45:39;;;;;;;126.72;28.33;;;14.30;99.90;;;;;;5021642;28;20021;-75
2021/06/10 04:48:05;;;;;;;207.25;33.58;;;14.20;99.90;;;;;;5020462;28;20072;-75
2021/06/10 04:50:33;;;;;;;170.30;31.60;;;13.90;99.90;;;;;;5043482;28;20040;-75
2021/06/10 04:52:58;;;;;;;117.75;28.13;;;14.10;99.90;;;;;;5045090;28;20104;-75
2021/06/10 04:55:24;;;;;;;53.17;23.95;;;14.10;99.90;;;;;;5021433;28;20452;-75
2021/06/10 04:57:50;;;;;;;83.00;26.77;;;14.30;99.90;;;;;;5040041;28;20721;-75
2021/06/10 05:00:16;;;;;;;100.65;29.98;;;14.20;99.90;;;;;;5018329;28;20064;-75
2021/06/10 05:02:42;;;;;;;252.20;41.40;;;14.10;99.90;;;;;;5044432;28;20036;-75
2021/06/10 05:05:08;;;;;;;53.22;25.02;;;14.10;99.90;;;;;;5039483;28;20025;-75
2021/06/10 05:07:34;;;;;;;58.83;26.17;;;14.30;99.90;;;;;;5036823;28;20025;-75
2021/06/10 05:10:00;;;;;;;30.00;22.90;;;14.40;99.90;;;;;;5039258;28;20025;-74
2021/06/10 05:12:26;;;;;;;33.38;22.85;;;14.50;99.90;;;;;;5018810;28;20026;-74
2021/06/10 05:14:52;;;;;;;38.50;23.42;;;14.70;99.90;;;;;;5031372;28;20163;-74
2021/06/10 05:17:18;;;;;;;27.67;22.13;;;15.00;99.90;;;;;;5032495;28;20030;-74
2021/06/10 05:19:43;;;;;;;35.45;24.27;;;15.10;99.90;;;;;;5025594;28;20491;-74
2021/06/10 05:22:09;;;;;;;31.52;21.75;;;15.10;99.90;;;;;;5045718;28;20064;-73
2021/06/10 05:24:34;;;;;;;27.02;21.30;;;15.00;99.90;;;;;;5047304;28;20080;-74
2021/06/10 05:27:00;;;;;;;37.20;22.73;;;15.00;99.90;;;;;;5049586;28;20040;-74
2021/06/10 05:29:26;;;;;;;26.60;20.63;;;15.30;99.90;;;;;;5047520;28;20470;-74
2021/06/10 05:31:52;;;;;;;52.42;23.13;;;15.40;99.90;;;;;;5049414;28;20134;-74
2021/06/10 05:34:17;;;;;;;49.60;23.42;;;15.30;99.90;;;;;;5055196;28;20021;-74
2021/06/10 05:36:43;;;;;;;27.77;19.58;;;15.40;99.90;;;;;;5040932;28;20028;-74
2021/06/10 05:39:09;;;;;;;75.90;24.08;;;15.50;99.90;;;;;;5034928;28;20029;-71
2021/06/10 05:41:35;;;;;;;79.70;26.35;;;15.50;99.90;;;;;;5035426;28;20037;-73
2021/06/10 05:44:00;;;;;;;116.70;25.40;;;15.40;99.90;;;;;;5054862;28;20033;-73
2021/06/10 05:46:26;;;;;;;51.83;20.92;;;15.30;99.90;;;;;;5041556;28;20031;-74
2021/06/10 05:48:51;;;;;;;61.95;24.40;;;15.30;99.90;;;;;;5047679;28;20033;-74
2021/06/10 05:51:17;;;;;;;163.27;28.00;;;15.70;99.90;;;;;;5048415;28;20059;-74
2021/06/10 05:53:43;;;;;;;98.55;23.73;;;15.70;99.90;;;;;;5047768;28;20097;-74
2021/06/10 05:56:08;;;;;;;22.58;18.02;;;15.90;99.90;;;;;;5020158;28;20093;-74
2021/06/10 05:58:34;;;;;;;64.15;22.48;;;16.00;99.90;;;;;;5029447;28;20052;-74
2021/06/10 06:01:00;;;;;;;67.85;23.10;;;15.80;99.90;;;;;;5048393;28;20108;-74
2021/06/10 06:03:26;;;;;;;77.30;23.73;;;15.90;99.90;;;;;;5047233;28;20033;-74
2021/06/10 06:05:53;;;;;;;47.60;22.35;;;15.90;99.90;;;;;;5034496;28;20030;-74
2021/06/10 06:08:19;;;;;;;85.43;24.40;;;16.00;99.90;;;;;;5024249;28;20597;-74
2021/06/10 06:10:48;;;;;;;33.35;21.83;;;16.10;99.90;;;;;;5040860;28;20075;-73
2021/06/10 06:13:15;;;;;;;45.50;23.38;;;16.40;99.90;;;;;;5036204;28;20116;-74
2021/06/10 06:15:40;;;;;;;39.17;24.58;;;16.20;99.90;;;;;;5039440;28;20087;-74
2021/06/10 06:18:07;;;;;;;32.28;24.02;;;16.10;99.90;;;;;;5034448;28;20442;-74
2021/06/10 06:20:33;;;;;;;25.77;22.38;;;15.90;99.90;;;;;;5035753;28;20530;-75
2021/06/10 06:22:59;;;;;;;35.42;25.20;;;16.10;99.90;;;;;;5054260;28;20033;-74
2021/06/10 06:25:24;;;;;;;58.53;25.25;;;16.30;99.90;;;;;;5022557;28;20028;-74
2021/06/10 06:27:50;;;;;;;24.70;21.13;;;16.30;99.90;;;;;;5054069;28;20032;-73
2021/06/10 06:30:17;;;;;;;23.73;19.88;;;16.50;99.90;;;;;;5022794;28;20022;-74
2021/06/10 06:32:42;;;;;;;27.90;21.15;;;16.90;99.90;;;;;;5045514;28;20045;-73
2021/06/10 06:35:09;;;;;;;40.08;24.13;;;17.00;99.90;;;;;;5033917;28;20080;-74
2021/06/10 06:37:35;;;;;;;92.38;24.75;;;17.00;99.90;;;;;;5033891;28;20030;-74
2021/06/10 06:40:00;;;;;;;36.08;24.60;;;16.80;99.90;;;;;;5033654;28;20033;-74
2021/06/10 06:42:26;;;;;;;41.00;23.75;;;16.90;99.90;;;;;;5024385;28;20025;-74
2021/06/10 06:44:52;;;;;;;41.60;24.83;;;16.90;99.90;;;;;;5038904;28;20109;-74
2021/06/10 06:47:18;;;;;;;64.38;25.92;;;16.70;99.90;;;;;;5033816;28;20025;-74
2021/06/10 06:49:43;;;;;;;54.53;25.65;;;16.80;99.90;;;;;;5033464;28;20029;-74
2021/06/10 06:52:09;;;;;;;60.70;25.35;;;16.80;99.90;;;;;;5034314;28;20071;-73
2021/06/10 06:54:34;;;;;;;31.85;24.35;;;17.10;99.90;;;;;;5025346;28;20021;-74
2021/06/10 06:57:00;;;;;;;25.85;23.05;;;17.10;99.90;;;;;;5028435;28;20422;-74
2021/06/10 06:59:26;;;;;;;98.43;27.92;;;17.20;99.90;;;;;;5021349;28;20034;-74
2021/06/10 07:01:51;;;;;;;28.40;23.30;;;17.20;99.90;;;;;;5053533;28;20474;-73
2021/06/10 07:04:17;;;;;;;33.58;25.85;;;17.30;99.90;;;;;;5040214;28;20036;-74
2021/06/10 07:06:43;;;;;;;37.22;26.80;;;17.30;99.90;;;;;;5027672;28;20087;-74
2021/06/10 07:09:09;;;;;;;43.50;25.23;;;17.30;99.90;;;;;;5033230;28;20020;-74
2021/06/10 07:11:35;;;;;;;28.20;23.65;;;17.40;99.90;;;;;;5041131;28;20378;-74
2021/06/10 07:14:02;;;;;;;28.73;25.25;;;17.70;99.90;;;;;;5038193;28;20041;-74
2021/06/10 07:16:28;;;;;;;28.35;24.95;;;17.80;99.90;;;;;;5014514;28;20029;-73
2021/06/10 07:18:54;;;;;;;25.10;22.40;;;17.80;99.90;;;;;;5033632;28;20052;-74
2021/06/10 07:21:19;;;;;;;29.67;25.75;;;18.00;99.90;;;;;;5032894;28;20027;-74
2021/06/10 07:23:45;;;;;;;27.63;22.88;;;18.00;99.90;;;;;;5047215;28;20029;-74
2021/06/10 07:26:10;;;;;;;27.30;24.40;;;18.10;99.90;;;;;;5052794;28;20028;-74
2021/06/10 07:28:36;;;;;;;27.20;23.55;;;17.90;99.90;;;;;;5052737;28;20025;-73
2021/06/10 07:31:02;;;;;;;31.58;22.63;;;17.80;99.90;;;;;;5053100;28;20017;-74
2021/06/10 07:33:27;;;;;;;22.80;20.40;;;17.90;99.90;;;;;;5054108;28;20033;-74
2021/06/10 07:35:53;;;;;;;24.67;21.77;;;18.10;99.90;;;;;;5053818;28;20155;-73
2021/06/10 07:38:19;;;;;;;22.17;19.77;;;18.30;99.90;;;;;;5051766;28;20387;-74
2021/06/10 07:40:44;;;;;;;21.80;19.55;;;18.20;99.90;;;;;;5032400;28;20029;-74
2021/06/10 07:43:10;;;;;;;22.80;20.35;;;18.40;99.90;;;;;;5032658;28;20096;-73
2021/06/10 07:45:36;;;;;;;20.85;18.75;;;18.30;99.90;;;;;;5032414;28;20129;-74
2021/06/10 07:48:03;;;;;;;19.45;17.52;;;18.50;99.90;;;;;;5034410;28;20537;-74
2021/06/10 07:50:29;;;;;;;20.65;18.48;;;18.80;99.90;;;;;;5052202;28;20021;-74
2021/06/10 07:52:54;;;;;;;20.15;18.05;;;18.80;99.90;;;;;;5052245;28;20124;-73
2021/06/10 07:55:21;;;;;;;19.90;17.90;;;19.00;99.90;;;;;;5035248;28;20433;-76
2021/06/10 07:57:48;;;;;;;18.80;16.85;;;19.20;99.90;;;;;;5023082;28;20025;-76
2021/06/10 08:00:14;;;;;;;17.63;15.90;;;19.30;99.90;;;;;;5044653;28;20033;-72
2021/06/10 08:02:41;;;;;;;16.85;15.20;;;19.70;99.90;;;;;;5045583;28;20108;-74
2021/06/10 08:05:07;;;;;;;15.65;14.25;;;19.60;99.90;;;;;;5032344;28;20033;-74
2021/06/10 08:07:33;;;;;;;14.75;12.70;;;19.50;99.90;;;;;;5045638;28;20029;-73
2021/06/10 08:09:59;;;;;;;15.13;13.60;;;19.50;99.90;;;;;;5014421;28;20112;-74
2021/06/10 08:12:24;;;;;;;14.48;12.98;;;19.40;99.90;;;;;;5045547;28;20064;-73
2021/06/10 08:14:50;;;;;;;14.57;13.18;;;19.70;99.90;;;;;;5032146;28;20041;-74
2021/06/10 08:17:16;;;;;;;14.10;12.70;;;19.90;99.90;;;;;;5032252;28;20074;-74
2021/06/10 08:19:42;;;;;;;12.85;11.50;;;19.90;99.90;;;;;;5021423;28;20033;-73
2021/06/10 08:22:08;;;;;;;14.73;13.32;;;19.80;99.90;;;;;;5038506;28;20377;-74
2021/06/10 08:24:33;;;;;;;12.65;11.38;;;19.60;99.90;;;;;;5045102;28;20074;-74
2021/06/10 08:26:59;;;;;;;12.65;11.45;;;20.10;99.90;;;;;;5045228;28;20032;-74
2021/06/10 08:29:27;;;;;;;13.52;12.20;;;20.50;99.90;;;;;;5021133;28;20099;-73
2021/06/10 08:31:54;;;;;;;13.55;12.15;;;20.50;99.90;;;;;;5038470;28;20028;-74
2021/06/10 08:34:20;;;;;;;12.73;11.43;;;20.40;99.90;;;;;;5044519;28;20028;-74
2021/06/10 08:36:47;;;;;;;14.35;12.63;;;20.50;99.90;;;;;;5045359;28;20025;-74
2021/06/10 08:39:12;;;;;;;12.85;11.65;;;20.50;99.90;;;;;;5039089;28;20108;-75
2021/06/10 08:41:39;;;;;;;11.85;10.75;;;20.80;99.90;;;;;;5038330;28;20124;-74
2021/06/10 08:44:04;;;;;;;11.73;10.70;;;21.10;99.90;;;;;;5044802;28;20099;-73
2021/06/10 08:46:32;;;;;;;10.57;9.57;;;20.80;99.90;;;;;;5032296;28;20479;-73
2021/06/10 08:48:58;;;;;;;10.70;9.70;;;21.00;99.90;;;;;;5044220;28;20022;-74
2021/06/10 08:51:23;;;;;;;10.02;9.02;;;21.10;99.90;;;;;;5027207;28;20028;-74
2021/06/10 08:53:50;;;;;;;9.93;8.98;;;21.10;99.90;;;;;;5021038;28;20020;-74
2021/06/10 08:56:16;;;;;;;9.65;8.73;;;21.20;99.90;;;;;;5005359;28;20029;-74
2021/06/10 08:58:42;;;;;;;9.80;9.00;;;21.40;99.90;;;;;;5045744;28;20021;-74
2021/06/10 09:01:12;;;;;;;10.15;9.25;;;21.40;99.90;;;;;;5048935;28;20513;-74
2021/06/10 09:03:38;;;;;;;10.45;9.45;;;21.40;99.90;;;;;;5026967;28;20436;-73
2021/06/10 09:06:18;;;;;;;9.82;8.98;;;21.50;99.90;;;;;;5022259;28;20021;-73
2021/06/10 09:08:46;;;;;;;9.70;8.80;;;21.90;99.90;;;;;;5035780;28;20025;-75
2021/06/10 09:11:14;;;;;;;10.20;9.15;;;22.00;99.90;;;;;;5021940;28;20017;-73
2021/06/10 09:13:46;;;;;;;10.02;9.13;;;21.70;99.90;;;;;;5026152;28;20113;-74
2021/06/10 09:16:22;;;;;;;9.90;9.10;;;21.80;99.90;;;;;;5048782;28;20483;-75
2021/06/10 09:19:08;;;;;;;9.82;8.93;;;21.80;99.90;;;;;;5048800;28;20029;-75
2021/06/10 09:21:39;;;;;;;8.93;8.10;;;22.10;99.90;;;;;;5017790;28;20027;-73
2021/06/10 09:24:33;;;;;;;9.88;8.98;;;22.10;99.90;;;;;;5048611;28;20032;-74
2021/06/10 09:27:05;;;;;;;8.77;7.97;;;22.10;99.90;;;;;;5048584;28;20027;-73
2021/06/10 09:29:41;;;;;;;9.02;8.23;;;22.20;99.90;;;;;;5044228;28;20387;-74
2021/06/10 09:32:11;;;;;;;;;;;22.20;99.90;;;;;;5024449;28;20073;-74
2021/06/10 09:34:43;;;;;;;8.50;7.63;;;22.30;99.90;;;;;;5044443;28;19932;-74
2021/06/10 09:37:10;;;;;;;9.63;8.65;;;22.30;99.90;;;;;;5037446;28;20442;-74
2021/06/10 09:39:47;;;;;;;9.38;8.55;;;22.50;99.90;;;;;;5044660;28;20116;-74
2021/06/10 09:42:13;;;;;;;8.70;7.88;;;23.00;99.90;;;;;;5039624;28;20017;-74
2021/06/10 09:44:54;;;;;;;8.65;7.80;;;23.10;99.90;;;;;;5048224;28;20585;-74
2021/06/10 09:47:27;;;;;;;7.93;7.32;;;23.20;99.90;;;;;;5034733;28;20029;-74
2021/06/10 09:49:53;;;;;;;7.88;7.07;;;23.20;99.90;;;;;;5032777;28;20434;-75
2021/06/10 09:52:20;;;;;;;6.65;6.15;;;22.70;99.90;;;;;;5043057;28;20025;-74
2021/06/10 09:54:50;;;;;;;7.00;6.40;;;22.70;99.90;;;;;;5034518;28;20017;-74
2021/06/10 09:57:16;;;;;;;6.47;5.88;;;22.70;99.90;;;;;;5043082;28;20028;-74
2021/06/10 09:59:56;;;;;;;5.25;4.80;;;22.80;99.90;;;;;;5039300;28;20025;-74
2021/06/10 10:02:27;;;;;;;6.53;5.95;;;22.80;99.90;;;;;;5023126;28;20679;-74
2021/06/10 10:04:57;;;;;;;6.10;5.50;;;22.80;99.90;;;;;;5048012;28;20036;-74
2021/06/10 10:07:29;;;;;;;6.43;5.93;;;22.90;99.90;;;;;;5029498;28;20053;-74
2021/06/10 10:09:57;;;;;;;7.28;6.57;;;22.90;99.90;;;;;;5027852;28;20021;-74
2021/06/10 10:12:25;;;;;;;6.95;6.25;;;23.00;99.90;;;;;;5040253;28;20049;-74
2021/06/10 10:14:51;;;;;;;7.00;6.40;;;23.00;99.90;;;;;;5041470;28;20056;-74
2021/06/10 10:17:18;;;;;;;6.53;5.90;;;23.10;99.90;;;;;;5041116;28;20064;-74
2021/06/10 10:19:44;;;;;;;6.63;6.03;;;23.30;99.90;;;;;;5046577;28;20526;-74
2021/06/10 10:22:11;;;;;;;6.28;5.78;;;23.50;99.90;;;;;;5047778;28;20052;-74
2021/06/10 10:24:38;;;;;;;6.28;5.78;;;23.30;99.90;;;;;;5024287;28;20556;-74
2021/06/10 10:27:05;;;;;;;6.72;6.13;;;23.20;99.90;;;;;;5053019;28;20112;-75
2021/06/10 10:29:31;;;;;;;6.20;5.60;;;23.20;99.90;;;;;;5034069;28;20040;-74
2021/06/10 10:31:57;;;;;;;6.85;6.15;;;23.40;99.90;;;;;;5047345;28;20025;-74
2021/06/10 10:34:29;;;;;;;7.10;6.40;;;23.50;99.90;;;;;;5042440;28;20021;-74
2021/06/10 10:36:55;;;;;;;6.43;5.85;;;23.80;99.90;;;;;;5020529;28;20033;-74
2021/06/10 10:39:41;;;;;;;7.68;6.85;;;23.80;99.90;;;;;;5033911;28;20510;-73
2021/06/10 10:42:07;;;;;;;7.85;7.07;;;23.90;99.90;;;;;;5029528;28;20037;-74
2021/06/10 10:44:34;;;;;;;7.45;6.75;;;24.00;99.90;;;;;;5045221;28;20033;-74
2021/06/10 10:46:59;;;;;;;7.32;6.72;;;24.00;99.90;;;;;;5041061;28;20029;-74
2021/06/10 10:49:26;;;;;;;6.85;6.32;;;24.10;99.90;;;;;;5042811;28;20636;-74
2021/06/10 10:51:52;;;;;;;7.15;6.55;;;24.30;99.90;;;;;;5047091;28;20040;-74
2021/06/10 10:54:34;;;;;;;7.00;6.28;;;24.40;99.90;;;;;;5045234;28;20475;-74
2021/06/10 10:57:00;;;;;;;7.22;6.63;;;24.20;99.90;;;;;;5029459;28;20057;-74
2021/06/10 10:59:37;;;;;;;7.32;6.72;;;24.10;99.90;;;;;;5040072;28;20103;-74
2021/06/10 11:02:13;;;;;;;6.63;6.07;;;24.20;99.90;;;;;;5044263;28;20033;-74
2021/06/10 11:04:58;;;;;;;6.60;6.00;;;24.50;99.90;;;;;;5046832;28;20030;-74
2021/06/10 11:07:33;;;;;;;5.78;5.28;;;24.70;99.90;;;;;;5046123;28;20509;-73
2021/06/10 11:10:10;;;;;;;5.43;4.93;;;24.60;99.90;;;;;;5010679;28;20031;-74
2021/06/10 11:12:41;;;;;;;5.90;5.40;;;24.70;99.90;;;;;;5039907;28;20515;-74
2021/06/10 11:15:45;;;;;;;6.72;6.22;;;24.70;99.90;;;;;;5043862;28;20026;-74
2021/06/10 11:18:12;;;;;;;7.10;6.50;;;24.70;99.90;;;;;;5009007;28;20047;-74
2021/06/10 11:20:38;;;;;;;7.10;6.50;;;25.10;99.90;;;;;;5020838;28;20120;-74
2021/06/10 11:23:25;;;;;;;7.20;6.60;;;25.00;99.90;;;;;;5045316;28;20156;-75
2021/06/10 11:25:52;;;;;;;6.93;6.32;;;24.90;99.90;;;;;;5046542;28;20025;-74
2021/06/10 11:28:22;;;;;;;7.10;6.50;;;24.90;99.90;;;;;;5043663;28;20028;-74
2021/06/10 11:30:54;;;;;;;7.00;6.30;;;25.10;99.90;;;;;;5021603;28;20120;-74
2021/06/10 11:33:19;;;;;;;6.78;6.20;;;25.50;99.90;;;;;;5023328;28;20021;-74
2021/06/10 11:35:49;;;;;;;7.38;6.75;;;25.70;99.90;;;;;;5046147;28;20136;-74
2021/06/10 11:38:42;;;;;;;7.30;6.55;;;25.90;99.90;;;;;;5045055;28;20029;-74
2021/06/10 11:41:12;;;;;;;6.40;5.80;;;26.10;99.90;;;;;;5031103;28;20025;-75
2021/06/10 11:43:40;;;;;;;7.65;6.95;;;26.30;99.90;;;;;;5052528;28;20068;-74
2021/06/10 11:46:10;;;;;;;7.43;6.80;;;26.10;99.90;;;;;;5043090;28;20022;-74
2021/06/10 11:48:41;;;;;;;6.93;6.32;;;26.00;99.90;;;;;;5045940;28;20387;-74
2021/06/10 11:51:17;;;;;;;7.78;6.95;;;26.10;99.90;;;;;;5043373;28;20021;-74
2021/06/10 11:53:42;;;;;;;;;;;25.70;99.90;;;;;;5047318;28;20112;-75
2021/06/10 11:56:08;;;;;;;7.93;7.23;;;25.80;99.90;;;;;;5014832;28;19963;-74
2021/06/10 11:58:34;;;;;;;7.75;7.05;;;25.70;99.90;;;;;;5039816;28;20255;-74
2021/06/10 12:01:12;;;;;;;7.90;7.20;;;26.00;99.90;;;;;;5020389;28;20025;-74
2021/06/10 12:03:41;;;;;;;8.35;7.53;;;26.00;99.90;;;;;;5025633;28;20028;-74
2021/06/10 12:06:09;;;;;;;8.05;7.45;;;25.40;99.90;;;;;;5027820;28;20131;-74
2021/06/10 12:08:36;;;;;;;8.38;7.68;;;25.70;99.90;;;;;;5024021;28;20045;-74
2021/06/10 12:11:10;;;;;;;8.20;7.40;;;26.30;99.90;;;;;;5038597;28;20028;-74
2021/06/10 12:13:37;;;;;;;7.88;7.18;;;26.50;99.90;;;;;;5041007;28;20396;-74
2021/06/10 12:16:08;;;;;;;9.27;8.18;;;26.60;99.90;;;;;;5050110;28;20025;-74
2021/06/10 12:18:36;;;;;;;7.75;7.03;;;26.30;99.90;;;;;;5039952;28;20471;-73
2021/06/10 12:21:07;;;;;;;8.20;7.50;;;26.00;99.90;;;;;;5045253;28;20057;-74
2021/06/10 12:23:38;;;;;;;7.85;7.15;;;26.00;99.90;;;;;;5045237;28;20017;-74
2021/06/10 12:26:14;;;;;;;8.15;7.40;;;26.30;99.90;;;;;;5009244;28;20028;-74
2021/06/10 12:28:46;;;;;;;9.13;8.23;;;26.50;99.90;;;;;;5038616;28;20021;-74
2021/06/10 12:31:17;;;;;;;8.20;7.05;;;26.70;99.90;;;;;;5042598;28;20040;-74
2021/06/10 12:33:45;;;;;;;8.07;7.45;;;26.60;99.90;;;;;;5031751;28;20028;-74
2021/06/10 12:36:25;;;;;;;8.15;7.32;;;26.80;99.90;;;;;;5041760;28;20056;-74
2021/06/10 12:38:58;;;;;;;7.80;7.15;;;26.90;99.90;;;;;;5033448;28;20403;-75